Airfield :
LOGIN :

Register | Disclaimer

   EN    FR    IT 

 










Legend :    VFR   Marginal VFR   IFR   Intensive IFR   Very Intensive IFR
Visi :
Ceiling :
>= 8 km
>= 3000ft
5 to 8 km
1000 to 3000 ft
1500m to 5 km
500 to 1000 ft
800 to 1500m
200 to 500 ft
< 800m
< 200 ft
Symbols :   Thunderstorms  Fog  Heavy snow  Heavy precipitations  Wind > 20 kt
SIGMETs :     Misc.  Thunderstorms  Icing  Turbulence  Mountain Waves  Volcanic Ashes






- Airport Elevation : 2595 ft
- IATA code : SLM


LESA - Salamanca Matacan

CURRENT METAR :
  • 041900Z 03004KT CAVOK 25/08 Q1023

EXPIRED METARs :
  • 041830Z 05004KT 030V090 CAVOK 29/06 Q1023
  • 041800Z 07004KT 030V090 CAVOK 30/03 Q1023
  • 041730Z 09004KT 060V140 CAVOK 30/02 Q1023
  • 041700Z 08004KT 020V140 CAVOK 31/00 Q1023
  • 041630Z 10005KT 060V170 CAVOK 31/02 Q1023
  • 041600Z 13005KT 070V210 CAVOK 31/01 Q1023

TAF TAF LESA
Valid from the 04 at 18:00 until the 05 at 18:00 UTC


041700Z 0418/0518 07007KT CAVOK TX34/0516Z TN13/0505Z



MET'MAP, your aeronautical weather chart ! - Copyright ORBIFLY December 2007 - Disclaimer

ORBIFLY MET'MAP TEAM :

Programming & Development : Alexandra Zaïnal
Concept & original design : Baudouin d'Aumeries
Assistance for programming : Marc-Olivier Méhu
Technical & hardware support : Manuel Goepfert

Contact : metmap@orbifly.com




SOURCES & CREDITS :

   NOAA